sensor_id;sensor_type;location;lat;lon;timestamp;temperature;humidity
8178;DHT22;4130;48.740;9.132;2023-12-29T00:00:34;8.70;99.90
8178;DHT22;4130;48.740;9.132;2023-12-29T00:03:02;8.70;99.90
8178;DHT22;4130;48.740;9.132;2023-12-29T00:05:29;8.70;99.90
8178;DHT22;4130;48.740;9.132;2023-12-29T00:11:22;8.70;99.90
8178;DHT22;4130;48.740;9.132;2023-12-29T00:13:52;8.80;99.90
8178;DHT22;4130;48.740;9.132;2023-12-29T00:16:19;8.80;99.90
8178;DHT22;4130;48.740;9.132;2023-12-29T00:21:53;8.90;99.90
8178;DHT22;4130;48.740;9.132;2023-12-29T00:24:20;8.90;99.90
8178;DHT22;4130;48.740;9.132;2023-12-29T00:26:47;8.90;99.90
8178;DHT22;4130;48.740;9.132;2023-12-29T00:29:15;8.80;99.90
8178;DHT22;4130;48.740;9.132;2023-12-29T00:31:43;8.80;99.90
8178;DHT22;4130;48.740;9.132;2023-12-29T00:34:10;8.70;99.90
8178;DHT22;4130;48.740;9.132;2023-12-29T00:36:37;8.60;99.90
8178;DHT22;4130;48.740;9.132;2023-12-29T00:39:04;8.60;99.90
8178;DHT22;4130;48.740;9.132;2023-12-29T00:41:32;8.50;99.90
8178;DHT22;4130;48.740;9.132;2023-12-29T00:43:59;8.50;99.90
8178;DHT22;4130;48.740;9.132;2023-12-29T00:46:28;8.50;99.90
8178;DHT22;4130;48.740;9.132;2023-12-29T00:48:55;8.50;99.90
8178;DHT22;4130;48.740;9.132;2023-12-29T00:51:22;8.60;99.90
8178;DHT22;4130;48.740;9.132;2023-12-29T00:53:49;8.70;99.90
8178;DHT22;4130;48.740;9.132;2023-12-29T00:56:19;8.70;99.90
8178;DHT22;4130;48.740;9.132;2023-12-29T00:58:46;8.70;99.90
8178;DHT22;4130;48.740;9.132;2023-12-29T01:01:13;8.70;99.90
8178;DHT22;4130;48.740;9.132;2023-12-29T01:03:41;8.80;99.90
8178;DHT22;4130;48.740;9.132;2023-12-29T01:06:08;8.80;99.90
8178;DHT22;4130;48.740;9.132;2023-12-29T01:08:35;8.90;99.90
8178;DHT22;4130;48.740;9.132;2023-12-29T01:11:02;8.90;99.90
8178;DHT22;4130;48.740;9.132;2023-12-29T01:13:29;9.00;99.90
8178;DHT22;4130;48.740;9.132;2023-12-29T01:15:56;9.00;99.90
8178;DHT22;4130;48.740;9.132;2023-12-29T01:18:23;9.10;99.90
8178;DHT22;4130;48.740;9.132;2023-12-29T01:20:51;9.10;99.90
8178;DHT22;4130;48.740;9.132;2023-12-29T01:23:18;9.10;99.90
8178;DHT22;4130;48.740;9.132;2023-12-29T01:25:45;9.00;99.90
8178;DHT22;4130;48.740;9.132;2023-12-29T01:28:12;8.90;99.90
8178;DHT22;4130;48.740;9.132;2023-12-29T01:30:39;8.90;99.90
8178;DHT22;4130;48.740;9.132;2023-12-29T01:33:06;8.90;99.90
8178;DHT22;4130;48.740;9.132;2023-12-29T01:35:33;8.90;99.90
8178;DHT22;4130;48.740;9.132;2023-12-29T01:38:02;8.90;99.90
8178;DHT22;4130;48.740;9.132;2023-12-29T01:40:29;8.90;99.90
8178;DHT22;4130;48.740;9.132;2023-12-29T01:42:56;8.90;99.90
8178;DHT22;4130;48.740;9.132;2023-12-29T01:45:24;9.00;99.90
8178;DHT22;4130;48.740;9.132;2023-12-29T01:47:52;9.00;99.90
8178;DHT22;4130;48.740;9.132;2023-12-29T01:50:21;9.00;99.90
8178;DHT22;4130;48.740;9.132;2023-12-29T01:52:49;9.10;99.90
8178;DHT22;4130;48.740;9.132;2023-12-29T01:55:20;9.10;99.90
8178;DHT22;4130;48.740;9.132;2023-12-29T01:57:48;9.10;99.90
8178;DHT22;4130;48.740;9.132;2023-12-29T02:00:16;9.10;99.90
8178;DHT22;4130;48.740;9.132;2023-12-29T02:02:44;9.10;99.90
8178;DHT22;4130;48.740;9.132;2023-12-29T02:05:14;9.10;99.90
8178;DHT22;4130;48.740;9.132;2023-12-29T02:07:41;9.10;99.90
8178;DHT22;4130;48.740;9.132;2023-12-29T02:10:09;9.10;99.90
8178;DHT22;4130;48.740;9.132;2023-12-29T02:12:40;9.10;99.90
8178;DHT22;4130;48.740;9.132;2023-12-29T02:15:08;9.10;99.90
8178;DHT22;4130;48.740;9.132;2023-12-29T02:17:40;9.00;99.90
8178;DHT22;4130;48.740;9.132;2023-12-29T02:20:08;9.10;99.90
8178;DHT22;4130;48.740;9.132;2023-12-29T02:22:36;9.10;99.90
8178;DHT22;4130;48.740;9.132;2023-12-29T02:25:04;9.10;99.90
8178;DHT22;4130;48.740;9.132;2023-12-29T02:27:41;9.20;99.90
8178;DHT22;4130;48.740;9.132;2023-12-29T02:30:13;9.10;99.90
8178;DHT22;4130;48.740;9.132;2023-12-29T02:32:43;9.10;99.90
8178;DHT22;4130;48.740;9.132;2023-12-29T02:35:17;9.10;99.90
8178;DHT22;4130;48.740;9.132;2023-12-29T02:37:45;9.10;99.90
8178;DHT22;4130;48.740;9.132;2023-12-29T02:40:14;9.10;99.90
8178;DHT22;4130;48.740;9.132;2023-12-29T02:42:45;9.10;99.90
8178;DHT22;4130;48.740;9.132;2023-12-29T02:45:13;9.10;99.90
8178;DHT22;4130;48.740;9.132;2023-12-29T02:47:41;9.10;99.90
8178;DHT22;4130;48.740;9.132;2023-12-29T02:50:09;9.10;99.90
8178;DHT22;4130;48.740;9.132;2023-12-29T02:52:36;9.00;99.90
8178;DHT22;4130;48.740;9.132;2023-12-29T02:55:04;9.00;99.90
8178;DHT22;4130;48.740;9.132;2023-12-29T02:57:32;8.90;99.90
8178;DHT22;4130;48.740;9.132;2023-12-29T02:59:59;8.90;99.90
8178;DHT22;4130;48.740;9.132;2023-12-29T03:02:26;8.90;99.90
8178;DHT22;4130;48.740;9.132;2023-12-29T03:04:53;8.80;99.90
8178;DHT22;4130;48.740;9.132;2023-12-29T03:07:20;8.80;99.90
8178;DHT22;4130;48.740;9.132;2023-12-29T03:09:48;8.90;99.90
8178;DHT22;4130;48.740;9.132;2023-12-29T03:12:15;8.90;99.90
8178;DHT22;4130;48.740;9.132;2023-12-29T03:14:44;8.90;99.90
8178;DHT22;4130;48.740;9.132;2023-12-29T03:17:12;8.80;99.90
8178;DHT22;4130;48.740;9.132;2023-12-29T03:19:39;8.80;99.90
8178;DHT22;4130;48.740;9.132;2023-12-29T03:22:06;8.80;99.90
8178;DHT22;4130;48.740;9.132;2023-12-29T03:24:33;8.80;99.90
8178;DHT22;4130;48.740;9.132;2023-12-29T03:27:00;8.80;99.90
8178;DHT22;4130;48.740;9.132;2023-12-29T03:29:27;8.70;99.90
8178;DHT22;4130;48.740;9.132;2023-12-29T03:31:58;8.80;99.90
8178;DHT22;4130;48.740;9.132;2023-12-29T03:34:24;8.70;99.90
8178;DHT22;4130;48.740;9.132;2023-12-29T03:36:51;8.70;99.90
8178;DHT22;4130;48.740;9.132;2023-12-29T03:39:18;8.70;99.90
8178;DHT22;4130;48.740;9.132;2023-12-29T03:41:45;8.70;99.90
8178;DHT22;4130;48.740;9.132;2023-12-29T03:44:12;8.60;99.90
8178;DHT22;4130;48.740;9.132;2023-12-29T03:46:39;8.60;99.90
8178;DHT22;4130;48.740;9.132;2023-12-29T03:49:08;8.60;99.90
8178;DHT22;4130;48.740;9.132;2023-12-29T03:51:34;8.60;99.90
8178;DHT22;4130;48.740;9.132;2023-12-29T03:54:01;8.60;99.90
8178;DHT22;4130;48.740;9.132;2023-12-29T03:56:29;8.60;99.90
8178;DHT22;4130;48.740;9.132;2023-12-29T03:58:56;8.50;99.90
8178;DHT22;4130;48.740;9.132;2023-12-29T04:01:23;8.50;99.90
8178;DHT22;4130;48.740;9.132;2023-12-29T04:03:51;8.40;99.90
8178;DHT22;4130;48.740;9.132;2023-12-29T04:06:19;8.40;99.90
8178;DHT22;4130;48.740;9.132;2023-12-29T04:08:46;8.40;99.90
8178;DHT22;4130;48.740;9.132;2023-12-29T04:11:13;8.40;99.90
8178;DHT22;4130;48.740;9.132;2023-12-29T04:13:40;8.50;99.90
8178;DHT22;4130;48.740;9.132;2023-12-29T04:16:07;8.40;99.90
8178;DHT22;4130;48.740;9.132;2023-12-29T04:18:33;8.40;99.90
8178;DHT22;4130;48.740;9.132;2023-12-29T04:21:00;8.40;99.90
8178;DHT22;4130;48.740;9.132;2023-12-29T04:23:29;8.40;99.90
8178;DHT22;4130;48.740;9.132;2023-12-29T04:25:56;8.40;99.90
8178;DHT22;4130;48.740;9.132;2023-12-29T04:28:23;8.40;99.90
8178;DHT22;4130;48.740;9.132;2023-12-29T04:30:50;8.50;99.90
8178;DHT22;4130;48.740;9.132;2023-12-29T04:33:17;8.50;99.90
8178;DHT22;4130;48.740;9.132;2023-12-29T04:35:44;8.50;99.90
8178;DHT22;4130;48.740;9.132;2023-12-29T04:38:11;8.50;99.90
8178;DHT22;4130;48.740;9.132;2023-12-29T04:40:39;8.50;99.90
8178;DHT22;4130;48.740;9.132;2023-12-29T04:43:06;8.50;99.90
8178;DHT22;4130;48.740;9.132;2023-12-29T04:45:33;8.50;99.90
8178;DHT22;4130;48.740;9.132;2023-12-29T04:48:00;8.40;99.90
8178;DHT22;4130;48.740;9.132;2023-12-29T04:50:27;8.40;99.90
8178;DHT22;4130;48.740;9.132;2023-12-29T04:52:53;8.40;99.90
8178;DHT22;4130;48.740;9.132;2023-12-29T04:55:20;8.40;99.90
8178;DHT22;4130;48.740;9.132;2023-12-29T04:57:49;8.30;99.90
8178;DHT22;4130;48.740;9.132;2023-12-29T05:00:16;8.30;99.90
8178;DHT22;4130;48.740;9.132;2023-12-29T05:02:43;8.30;99.90
8178;DHT22;4130;48.740;9.132;2023-12-29T05:05:10;8.20;99.90
8178;DHT22;4130;48.740;9.132;2023-12-29T05:07:37;8.20;99.90
8178;DHT22;4130;48.740;9.132;2023-12-29T05:10:06;8.30;99.90
8178;DHT22;4130;48.740;9.132;2023-12-29T05:12:33;8.30;99.90
8178;DHT22;4130;48.740;9.132;2023-12-29T05:15:01;8.30;99.90
8178;DHT22;4130;48.740;9.132;2023-12-29T05:17:28;8.40;99.90
8178;DHT22;4130;48.740;9.132;2023-12-29T05:19:55;8.40;99.90
8178;DHT22;4130;48.740;9.132;2023-12-29T05:22:22;8.50;99.90
8178;DHT22;4130;48.740;9.132;2023-12-29T05:24:49;8.50;99.90
8178;DHT22;4130;48.740;9.132;2023-12-29T05:27:15;8.50;99.90
8178;DHT22;4130;48.740;9.132;2023-12-29T05:29:42;8.40;99.90
8178;DHT22;4130;48.740;9.132;2023-12-29T05:32:11;8.40;99.90
8178;DHT22;4130;48.740;9.132;2023-12-29T05:34:38;8.40;99.90
8178;DHT22;4130;48.740;9.132;2023-12-29T05:37:04;8.40;99.90
8178;DHT22;4130;48.740;9.132;2023-12-29T05:39:32;8.30;99.90
8178;DHT22;4130;48.740;9.132;2023-12-29T05:41:59;8.20;99.90
8178;DHT22;4130;48.740;9.132;2023-12-29T05:44:26;8.20;99.90
8178;DHT22;4130;48.740;9.132;2023-12-29T05:46:53;8.10;99.90
8178;DHT22;4130;48.740;9.132;2023-12-29T05:49:25;8.10;99.90
8178;DHT22;4130;48.740;9.132;2023-12-29T05:51:52;8.10;99.90
8178;DHT22;4130;48.740;9.132;2023-12-29T05:54:19;8.10;99.90
8178;DHT22;4130;48.740;9.132;2023-12-29T05:56:46;8.10;99.90
8178;DHT22;4130;48.740;9.132;2023-12-29T05:59:13;8.00;99.90
8178;DHT22;4130;48.740;9.132;2023-12-29T06:01:40;8.00;99.90
8178;DHT22;4130;48.740;9.132;2023-12-29T06:04:07;8.00;99.90
8178;DHT22;4130;48.740;9.132;2023-12-29T06:06:36;8.00;99.90
8178;DHT22;4130;48.740;9.132;2023-12-29T06:09:03;8.00;99.90
8178;DHT22;4130;48.740;9.132;2023-12-29T06:11:30;8.10;99.90
8178;DHT22;4130;48.740;9.132;2023-12-29T06:13:57;8.10;99.90
8178;DHT22;4130;48.740;9.132;2023-12-29T06:16:24;8.10;99.90
8178;DHT22;4130;48.740;9.132;2023-12-29T06:18:52;8.10;99.90
8178;DHT22;4130;48.740;9.132;2023-12-29T06:21:19;8.10;99.90
8178;DHT22;4130;48.740;9.132;2023-12-29T06:23:48;8.10;99.90
8178;DHT22;4130;48.740;9.132;2023-12-29T06:26:15;8.10;99.90
8178;DHT22;4130;48.740;9.132;2023-12-29T06:39:06;8.10;99.90
8178;DHT22;4130;48.740;9.132;2023-12-29T06:41:33;8.10;99.90
8178;DHT22;4130;48.740;9.132;2023-12-29T06:44:00;8.20;99.90
8178;DHT22;4130;48.740;9.132;2023-12-29T06:46:26;8.10;99.90
8178;DHT22;4130;48.740;9.132;2023-12-29T06:48:53;8.10;99.90
8178;DHT22;4130;48.740;9.132;2023-12-29T06:51:21;8.10;99.90
8178;DHT22;4130;48.740;9.132;2023-12-29T06:53:49;8.10;99.90
8178;DHT22;4130;48.740;9.132;2023-12-29T06:56:17;8.00;99.90
8178;DHT22;4130;48.740;9.132;2023-12-29T06:58:44;8.10;99.90
8178;DHT22;4130;48.740;9.132;2023-12-29T07:01:11;8.10;99.90
8178;DHT22;4130;48.740;9.132;2023-12-29T07:03:38;8.10;99.90
8178;DHT22;4130;48.740;9.132;2023-12-29T07:06:05;8.10;99.90
8178;DHT22;4130;48.740;9.132;2023-12-29T07:08:32;8.10;99.90
8178;DHT22;4130;48.740;9.132;2023-12-29T07:10:59;8.10;99.90
8178;DHT22;4130;48.740;9.132;2023-12-29T07:13:27;8.10;99.90
8178;DHT22;4130;48.740;9.132;2023-12-29T07:15:54;8.10;99.90
8178;DHT22;4130;48.740;9.132;2023-12-29T07:18:21;8.20;99.90
8178;DHT22;4130;48.740;9.132;2023-12-29T07:20:48;8.10;99.90
8178;DHT22;4130;48.740;9.132;2023-12-29T07:23:15;8.10;99.90
8178;DHT22;4130;48.740;9.132;2023-12-29T07:25:41;8.20;99.90
8178;DHT22;4130;48.740;9.132;2023-12-29T07:28:08;8.20;99.90
8178;DHT22;4130;48.740;9.132;2023-12-29T07:30:36;8.10;99.90
8178;DHT22;4130;48.740;9.132;2023-12-29T07:33:03;8.40;99.90
8178;DHT22;4130;48.740;9.132;2023-12-29T07:35:30;8.10;99.90
8178;DHT22;4130;48.740;9.132;2023-12-29T07:37:57;8.10;99.90
8178;DHT22;4130;48.740;9.132;2023-12-29T07:40:24;8.10;99.90
8178;DHT22;4130;48.740;9.132;2023-12-29T07:42:51;8.20;99.90
8178;DHT22;4130;48.740;9.132;2023-12-29T07:45:18;8.20;99.90
8178;DHT22;4130;48.740;9.132;2023-12-29T07:47:47;8.20;99.90
8178;DHT22;4130;48.740;9.132;2023-12-29T07:50:13;8.20;99.90
8178;DHT22;4130;48.740;9.132;2023-12-29T07:52:42;8.30;99.90
8178;DHT22;4130;48.740;9.132;2023-12-29T07:55:09;8.30;99.90
8178;DHT22;4130;48.740;9.132;2023-12-29T07:57:36;8.40;99.90
8178;DHT22;4130;48.740;9.132;2023-12-29T08:00:03;8.40;99.90
8178;DHT22;4130;48.740;9.132;2023-12-29T08:02:31;8.40;99.90
8178;DHT22;4130;48.740;9.132;2023-12-29T08:04:59;8.40;99.90
8178;DHT22;4130;48.740;9.132;2023-12-29T08:07:26;8.40;99.90
8178;DHT22;4130;48.740;9.132;2023-12-29T08:09:53;8.50;99.90
8178;DHT22;4130;48.740;9.132;2023-12-29T08:12:20;8.50;99.90
8178;DHT22;4130;48.740;9.132;2023-12-29T08:14:46;8.50;99.90
8178;DHT22;4130;48.740;9.132;2023-12-29T08:17:13;8.60;99.90
8178;DHT22;4130;48.740;9.132;2023-12-29T08:19:40;8.50;99.90
8178;DHT22;4130;48.740;9.132;2023-12-29T08:22:08;8.50;99.90
8178;DHT22;4130;48.740;9.132;2023-12-29T08:24:35;8.60;99.90
8178;DHT22;4130;48.740;9.132;2023-12-29T08:27:02;8.60;99.90
8178;DHT22;4130;48.740;9.132;2023-12-29T08:29:29;8.70;99.90
8178;DHT22;4130;48.740;9.132;2023-12-29T08:31:56;8.60;99.90
8178;DHT22;4130;48.740;9.132;2023-12-29T08:34:23;8.60;99.90
8178;DHT22;4130;48.740;9.132;2023-12-29T08:36:50;8.70;99.90
8178;DHT22;4130;48.740;9.132;2023-12-29T08:39:18;8.90;99.90
8178;DHT22;4130;48.740;9.132;2023-12-29T08:41:44;8.60;99.90
8178;DHT22;4130;48.740;9.132;2023-12-29T08:44:15;8.60;99.90
8178;DHT22;4130;48.740;9.132;2023-12-29T08:46:42;8.70;99.90
8178;DHT22;4130;48.740;9.132;2023-12-29T08:49:09;8.70;99.90
8178;DHT22;4130;48.740;9.132;2023-12-29T08:51:35;8.70;99.90
8178;DHT22;4130;48.740;9.132;2023-12-29T08:54:05;8.70;99.90
8178;DHT22;4130;48.740;9.132;2023-12-29T08:56:33;8.80;99.90
8178;DHT22;4130;48.740;9.132;2023-12-29T08:59:00;8.70;99.90
8178;DHT22;4130;48.740;9.132;2023-12-29T09:01:27;8.70;99.90
8178;DHT22;4130;48.740;9.132;2023-12-29T09:03:53;8.70;99.90
8178;DHT22;4130;48.740;9.132;2023-12-29T09:06:20;8.70;99.90
8178;DHT22;4130;48.740;9.132;2023-12-29T09:08:47;8.70;99.90
8178;DHT22;4130;48.740;9.132;2023-12-29T09:11:14;8.70;99.90
8178;DHT22;4130;48.740;9.132;2023-12-29T09:13:42;8.80;99.90
8178;DHT22;4130;48.740;9.132;2023-12-29T09:16:10;8.80;99.90
8178;DHT22;4130;48.740;9.132;2023-12-29T09:18:37;8.80;99.90
8178;DHT22;4130;48.740;9.132;2023-12-29T09:21:04;8.80;99.90
8178;DHT22;4130;48.740;9.132;2023-12-29T09:23:34;8.90;99.90
8178;DHT22;4130;48.740;9.132;2023-12-29T09:26:03;9.00;99.90
8178;DHT22;4130;48.740;9.132;2023-12-29T09:28:32;9.20;99.90
8178;DHT22;4130;48.740;9.132;2023-12-29T09:31:00;9.30;99.90
8178;DHT22;4130;48.740;9.132;2023-12-29T09:33:27;9.30;99.90
8178;DHT22;4130;48.740;9.132;2023-12-29T09:35:54;10.10;99.90
8178;DHT22;4130;48.740;9.132;2023-12-29T09:38:21;9.30;99.90
8178;DHT22;4130;48.740;9.132;2023-12-29T09:40:48;9.30;99.90
8178;DHT22;4130;48.740;9.132;2023-12-29T09:43:15;9.30;99.90
8178;DHT22;4130;48.740;9.132;2023-12-29T09:45:44;9.30;99.90
8178;DHT22;4130;48.740;9.132;2023-12-29T09:48:13;9.20;99.90
8178;DHT22;4130;48.740;9.132;2023-12-29T09:50:45;9.20;99.90
8178;DHT22;4130;48.740;9.132;2023-12-29T09:53:12;9.20;99.90
8178;DHT22;4130;48.740;9.132;2023-12-29T09:55:40;9.20;99.90
8178;DHT22;4130;48.740;9.132;2023-12-29T09:58:08;9.20;99.90
8178;DHT22;4130;48.740;9.132;2023-12-29T10:00:36;9.80;99.90
8178;DHT22;4130;48.740;9.132;2023-12-29T10:03:05;9.90;99.90
8178;DHT22;4130;48.740;9.132;2023-12-29T10:05:33;9.20;99.90
8178;DHT22;4130;48.740;9.132;2023-12-29T10:08:02;9.20;99.90
8178;DHT22;4130;48.740;9.132;2023-12-29T10:10:30;9.20;99.90
8178;DHT22;4130;48.740;9.132;2023-12-29T10:12:58;9.30;99.90
8178;DHT22;4130;48.740;9.132;2023-12-29T10:15:33;9.40;99.90
8178;DHT22;4130;48.740;9.132;2023-12-29T10:18:07;9.50;99.90
8178;DHT22;4130;48.740;9.132;2023-12-29T10:20:45;9.60;99.90
8178;DHT22;4130;48.740;9.132;2023-12-29T10:23:18;9.60;99.90
8178;DHT22;4130;48.740;9.132;2023-12-29T10:25:45;9.50;99.90
8178;DHT22;4130;48.740;9.132;2023-12-29T10:28:16;9.60;99.90
8178;DHT22;4130;48.740;9.132;2023-12-29T10:30:43;9.60;99.90
8178;DHT22;4130;48.740;9.132;2023-12-29T10:33:10;9.60;99.90
8178;DHT22;4130;48.740;9.132;2023-12-29T10:35:38;9.60;99.90
8178;DHT22;4130;48.740;9.132;2023-12-29T10:38:09;9.70;99.90
8178;DHT22;4130;48.740;9.132;2023-12-29T10:40:36;9.80;99.90
8178;DHT22;4130;48.740;9.132;2023-12-29T10:43:03;9.90;99.90
8178;DHT22;4130;48.740;9.132;2023-12-29T10:45:32;9.90;99.90
8178;DHT22;4130;48.740;9.132;2023-12-29T10:48:00;10.00;99.90
8178;DHT22;4130;48.740;9.132;2023-12-29T10:50:27;10.10;99.90
8178;DHT22;4130;48.740;9.132;2023-12-29T10:53:10;10.10;99.90
8178;DHT22;4130;48.740;9.132;2023-12-29T10:55:37;10.30;99.90
8178;DHT22;4130;48.740;9.132;2023-12-29T10:58:05;10.20;99.90
8178;DHT22;4130;48.740;9.132;2023-12-29T11:00:32;10.30;99.90
8178;DHT22;4130;48.740;9.132;2023-12-29T11:02:59;10.80;99.90
8178;DHT22;4130;48.740;9.132;2023-12-29T11:05:27;10.40;99.90
8178;DHT22;4130;48.740;9.132;2023-12-29T11:07:54;10.40;99.90
8178;DHT22;4130;48.740;9.132;2023-12-29T11:10:22;10.40;99.90
8178;DHT22;4130;48.740;9.132;2023-12-29T11:12:49;10.40;99.90
8178;DHT22;4130;48.740;9.132;2023-12-29T11:15:17;10.40;99.90
8178;DHT22;4130;48.740;9.132;2023-12-29T11:17:44;10.50;99.90
8178;DHT22;4130;48.740;9.132;2023-12-29T11:20:15;10.60;99.90
8178;DHT22;4130;48.740;9.132;2023-12-29T11:22:43;10.60;99.90
8178;DHT22;4130;48.740;9.132;2023-12-29T11:25:12;10.60;99.90
8178;DHT22;4130;48.740;9.132;2023-12-29T11:27:44;10.70;99.90
8178;DHT22;4130;48.740;9.132;2023-12-29T11:30:14;10.70;99.90
8178;DHT22;4130;48.740;9.132;2023-12-29T11:32:45;10.70;99.90
8178;DHT22;4130;48.740;9.132;2023-12-29T11:35:19;10.90;99.90
8178;DHT22;4130;48.740;9.132;2023-12-29T11:38:08;11.30;99.90
8178;DHT22;4130;48.740;9.132;2023-12-29T11:40:42;10.80;99.90
8178;DHT22;4130;48.740;9.132;2023-12-29T11:43:15;10.90;99.90
8178;DHT22;4130;48.740;9.132;2023-12-29T11:45:43;11.00;99.90
8178;DHT22;4130;48.740;9.132;2023-12-29T11:48:10;11.10;99.90
8178;DHT22;4130;48.740;9.132;2023-12-29T11:50:39;11.10;99.90
8178;DHT22;4130;48.740;9.132;2023-12-29T11:53:07;11.00;99.90
8178;DHT22;4130;48.740;9.132;2023-12-29T11:55:35;11.00;99.90
8178;DHT22;4130;48.740;9.132;2023-12-29T11:58:03;11.00;99.90
8178;DHT22;4130;48.740;9.132;2023-12-29T12:00:47;11.00;99.90
8178;DHT22;4130;48.740;9.132;2023-12-29T12:03:18;11.10;99.90
8178;DHT22;4130;48.740;9.132;2023-12-29T12:05:46;11.20;99.90
8178;DHT22;4130;48.740;9.132;2023-12-29T12:08:33;11.20;99.90
8178;DHT22;4130;48.740;9.132;2023-12-29T12:14:04;11.30;99.90
8178;DHT22;4130;48.740;9.132;2023-12-29T12:16:51;11.20;99.90
8178;DHT22;4130;48.740;9.132;2023-12-29T12:19:19;11.20;99.90
8178;DHT22;4130;48.740;9.132;2023-12-29T12:21:47;11.10;99.90
8178;DHT22;4130;48.740;9.132;2023-12-29T12:24:15;11.10;99.90
8178;DHT22;4130;48.740;9.132;2023-12-29T12:26:44;11.00;99.90
8178;DHT22;4130;48.740;9.132;2023-12-29T12:29:13;11.00;99.90
8178;DHT22;4130;48.740;9.132;2023-12-29T12:31:54;11.00;99.90
8178;DHT22;4130;48.740;9.132;2023-12-29T12:34:23;11.00;99.90
8178;DHT22;4130;48.740;9.132;2023-12-29T12:36:51;11.00;99.90
8178;DHT22;4130;48.740;9.132;2023-12-29T12:39:25;11.00;99.90
8178;DHT22;4130;48.740;9.132;2023-12-29T12:42:04;11.00;99.90
8178;DHT22;4130;48.740;9.132;2023-12-29T12:44:31;11.10;99.90
8178;DHT22;4130;48.740;9.132;2023-12-29T12:47:01;11.10;99.90
8178;DHT22;4130;48.740;9.132;2023-12-29T12:49:33;11.20;99.90
8178;DHT22;4130;48.740;9.132;2023-12-29T12:52:00;11.30;99.90
8178;DHT22;4130;48.740;9.132;2023-12-29T12:54:28;11.50;99.90
8178;DHT22;4130;48.740;9.132;2023-12-29T12:56:55;11.70;99.90
8178;DHT22;4130;48.740;9.132;2023-12-29T12:59:22;11.90;99.90
8178;DHT22;4130;48.740;9.132;2023-12-29T13:01:48;12.00;99.90
8178;DHT22;4130;48.740;9.132;2023-12-29T13:04:17;12.10;99.90
8178;DHT22;4130;48.740;9.132;2023-12-29T13:06:44;12.10;99.90
8178;DHT22;4130;48.740;9.132;2023-12-29T13:09:11;12.20;99.90
8178;DHT22;4130;48.740;9.132;2023-12-29T13:11:39;12.20;99.90
8178;DHT22;4130;48.740;9.132;2023-12-29T13:14:06;12.20;99.90
8178;DHT22;4130;48.740;9.132;2023-12-29T13:16:33;12.30;99.90
8178;DHT22;4130;48.740;9.132;2023-12-29T13:19:17;12.20;99.90
8178;DHT22;4130;48.740;9.132;2023-12-29T13:21:48;12.10;99.90
8178;DHT22;4130;48.740;9.132;2023-12-29T13:24:17;12.00;99.90
8178;DHT22;4130;48.740;9.132;2023-12-29T13:26:44;11.90;99.90
8178;DHT22;4130;48.740;9.132;2023-12-29T13:29:12;11.80;99.90
8178;DHT22;4130;48.740;9.132;2023-12-29T13:31:39;11.70;99.90
8178;DHT22;4130;48.740;9.132;2023-12-29T13:34:12;11.70;99.90
8178;DHT22;4130;48.740;9.132;2023-12-29T13:36:48;11.60;99.90
8178;DHT22;4130;48.740;9.132;2023-12-29T13:39:24;11.50;99.90
8178;DHT22;4130;48.740;9.132;2023-12-29T13:41:53;11.50;99.90
8178;DHT22;4130;48.740;9.132;2023-12-29T13:44:20;11.50;99.90
8178;DHT22;4130;48.740;9.132;2023-12-29T13:46:53;11.50;99.90
8178;DHT22;4130;48.740;9.132;2023-12-29T13:49:20;11.50;99.90
8178;DHT22;4130;48.740;9.132;2023-12-29T13:51:59;11.40;99.90
8178;DHT22;4130;48.740;9.132;2023-12-29T13:54:26;11.50;99.90
8178;DHT22;4130;48.740;9.132;2023-12-29T13:56:54;11.40;99.90
8178;DHT22;4130;48.740;9.132;2023-12-29T13:59:29;11.30;99.90
8178;DHT22;4130;48.740;9.132;2023-12-29T14:01:58;11.40;99.90
8178;DHT22;4130;48.740;9.132;2023-12-29T14:04:26;11.40;99.90
8178;DHT22;4130;48.740;9.132;2023-12-29T14:07:00;11.30;99.90
8178;DHT22;4130;48.740;9.132;2023-12-29T14:09:27;11.30;99.90
8178;DHT22;4130;48.740;9.132;2023-12-29T14:11:55;11.30;99.90
8178;DHT22;4130;48.740;9.132;2023-12-29T14:14:22;11.30;99.90
8178;DHT22;4130;48.740;9.132;2023-12-29T14:16:50;11.20;99.90
8178;DHT22;4130;48.740;9.132;2023-12-29T14:19:16;11.20;99.90
8178;DHT22;4130;48.740;9.132;2023-12-29T14:21:46;11.20;99.90
8178;DHT22;4130;48.740;9.132;2023-12-29T14:24:17;11.10;99.90
8178;DHT22;4130;48.740;9.132;2023-12-29T14:26:54;11.20;99.90
8178;DHT22;4130;48.740;9.132;2023-12-29T14:29:23;11.50;99.90
8178;DHT22;4130;48.740;9.132;2023-12-29T14:31:52;11.20;99.90
8178;DHT22;4130;48.740;9.132;2023-12-29T14:34:21;11.20;99.90
8178;DHT22;4130;48.740;9.132;2023-12-29T14:36:48;11.20;99.90
8178;DHT22;4130;48.740;9.132;2023-12-29T14:39:16;11.10;99.90
8178;DHT22;4130;48.740;9.132;2023-12-29T14:41:43;11.10;99.90
8178;DHT22;4130;48.740;9.132;2023-12-29T14:44:17;11.20;99.90
8178;DHT22;4130;48.740;9.132;2023-12-29T14:46:44;11.10;99.90
8178;DHT22;4130;48.740;9.132;2023-12-29T14:49:11;12.30;99.90
8178;DHT22;4130;48.740;9.132;2023-12-29T14:51:38;11.10;99.90
8178;DHT22;4130;48.740;9.132;2023-12-29T14:54:05;11.10;99.90
8178;DHT22;4130;48.740;9.132;2023-12-29T14:56:35;11.20;99.90
8178;DHT22;4130;48.740;9.132;2023-12-29T14:59:02;11.00;99.90
8178;DHT22;4130;48.740;9.132;2023-12-29T15:01:29;11.00;99.90
8178;DHT22;4130;48.740;9.132;2023-12-29T15:03:59;11.00;99.90
8178;DHT22;4130;48.740;9.132;2023-12-29T15:06:28;11.00;99.90
8178;DHT22;4130;48.740;9.132;2023-12-29T15:08:59;10.90;99.90
8178;DHT22;4130;48.740;9.132;2023-12-29T15:11:26;10.90;99.90
8178;DHT22;4130;48.740;9.132;2023-12-29T15:13:54;10.80;99.90
8178;DHT22;4130;48.740;9.132;2023-12-29T15:16:21;10.90;99.90
8178;DHT22;4130;48.740;9.132;2023-12-29T15:18:47;11.70;99.90
8178;DHT22;4130;48.740;9.132;2023-12-29T15:21:14;10.60;99.90
8178;DHT22;4130;48.740;9.132;2023-12-29T15:23:43;10.70;99.90
8178;DHT22;4130;48.740;9.132;2023-12-29T15:26:11;11.00;99.90
8178;DHT22;4130;48.740;9.132;2023-12-29T15:28:43;10.50;99.90
8178;DHT22;4130;48.740;9.132;2023-12-29T15:31:12;10.50;99.90
8178;DHT22;4130;48.740;9.132;2023-12-29T15:33:41;10.50;99.90
8178;DHT22;4130;48.740;9.132;2023-12-29T15:36:12;10.40;99.90
8178;DHT22;4130;48.740;9.132;2023-12-29T15:38:39;10.50;99.90
8178;DHT22;4130;48.740;9.132;2023-12-29T15:41:06;10.30;99.90
8178;DHT22;4130;48.740;9.132;2023-12-29T15:43:32;10.30;99.90
8178;DHT22;4130;48.740;9.132;2023-12-29T15:46:01;10.20;99.90
8178;DHT22;4130;48.740;9.132;2023-12-29T15:48:30;10.10;99.90
8178;DHT22;4130;48.740;9.132;2023-12-29T15:51:06;10.10;99.90
8178;DHT22;4130;48.740;9.132;2023-12-29T15:53:33;10.10;99.90
8178;DHT22;4130;48.740;9.132;2023-12-29T15:56:00;10.10;99.90
8178;DHT22;4130;48.740;9.132;2023-12-29T15:58:28;10.00;99.90
8178;DHT22;4130;48.740;9.132;2023-12-29T16:00:55;10.00;99.90
8178;DHT22;4130;48.740;9.132;2023-12-29T16:03:21;9.90;99.90
8178;DHT22;4130;48.740;9.132;2023-12-29T16:05:50;9.90;99.90
8178;DHT22;4130;48.740;9.132;2023-12-29T16:08:17;10.90;99.90
8178;DHT22;4130;48.740;9.132;2023-12-29T16:10:43;9.60;99.90
8178;DHT22;4130;48.740;9.132;2023-12-29T16:13:11;9.60;99.90
8178;DHT22;4130;48.740;9.132;2023-12-29T16:15:39;9.60;99.90
8178;DHT22;4130;48.740;9.132;2023-12-29T16:18:06;9.60;99.90
8178;DHT22;4130;48.740;9.132;2023-12-29T16:20:32;9.50;99.90
8178;DHT22;4130;48.740;9.132;2023-12-29T16:23:01;9.50;99.90
8178;DHT22;4130;48.740;9.132;2023-12-29T16:25:28;9.30;99.90
8178;DHT22;4130;48.740;9.132;2023-12-29T16:27:54;9.20;99.90
8178;DHT22;4130;48.740;9.132;2023-12-29T16:30:21;9.10;99.90
8178;DHT22;4130;48.740;9.132;2023-12-29T16:32:48;9.10;99.90
8178;DHT22;4130;48.740;9.132;2023-12-29T16:35:15;8.90;99.90
8178;DHT22;4130;48.740;9.132;2023-12-29T16:37:42;8.80;99.90